createdAt,value
2023-03-02T00:01:10.856Z,3.10
2023-03-02T00:03:40.765Z,3.10
2023-03-02T00:06:09.899Z,3.10
2023-03-02T00:08:38.116Z,3.10
2023-03-02T00:11:05.392Z,3.10
2023-03-02T00:13:34.242Z,3.10
2023-03-02T00:16:01.092Z,2.70
2023-03-02T00:18:28.008Z,3.10
2023-03-02T00:20:54.838Z,3.10
2023-03-02T00:23:21.890Z,3.20
2023-03-02T00:25:48.706Z,3.10
2023-03-02T00:28:15.664Z,3.10
2023-03-02T00:30:42.509Z,3.00
2023-03-02T00:33:09.607Z,3.10
2023-03-02T00:35:41.048Z,3.00
2023-03-02T00:38:08.873Z,3.00
2023-03-02T00:40:36.162Z,3.00
2023-03-02T00:43:03.069Z,3.00
2023-03-02T00:45:30.318Z,3.00
2023-03-02T00:47:57.167Z,3.00
2023-03-02T00:50:24.090Z,3.00
2023-03-02T00:52:51.064Z,2.90
2023-03-02T00:55:17.934Z,3.00
2023-03-02T00:57:44.784Z,3.00
2023-03-02T01:00:12.110Z,2.90
2023-03-02T01:02:44.332Z,2.90
2023-03-02T01:05:11.429Z,2.90
2023-03-02T01:07:38.240Z,2.90
2023-03-02T01:10:05.650Z,2.90
2023-03-02T01:12:32.889Z,2.90
2023-03-02T01:14:59.739Z,2.90
2023-03-02T01:17:26.645Z,2.90
2023-03-02T01:19:54.278Z,2.90
2023-03-02T01:22:22.709Z,2.90
2023-03-02T01:24:50.265Z,2.80
2023-03-02T01:27:17.958Z,2.90
2023-03-02T01:29:44.966Z,2.80
2023-03-02T01:32:11.966Z,3.00
2023-03-02T01:34:38.958Z,2.80
2023-03-02T01:37:05.846Z,2.80
2023-03-02T01:39:32.730Z,2.80
2023-03-02T01:42:00.271Z,2.90
2023-03-02T01:44:44.632Z,2.80
2023-03-02T01:47:23.429Z,2.70
2023-03-02T01:49:56.814Z,2.60
2023-03-02T01:52:24.362Z,2.90
2023-03-02T01:54:56.304Z,2.60
2023-03-02T01:57:26.202Z,2.80
2023-03-02T01:59:59.839Z,2.50
2023-03-02T02:02:26.911Z,2.50
2023-03-02T02:04:56.138Z,2.50
2023-03-02T02:07:23.026Z,2.50
2023-03-02T02:09:52.434Z,2.50
2023-03-02T02:12:21.806Z,2.60
2023-03-02T02:14:49.391Z,2.40
2023-03-02T02:17:18.470Z,2.50
2023-03-02T02:20:10.485Z,2.50
2023-03-02T02:23:01.530Z,2.50
2023-03-02T02:26:01.895Z,2.50
2023-03-02T02:28:48.238Z,2.50
2023-03-02T02:31:18.178Z,2.50
2023-03-02T02:33:53.763Z,2.50
2023-03-02T02:36:24.777Z,2.50
2023-03-02T02:38:55.711Z,2.50
2023-03-02T02:41:27.615Z,2.50
2023-03-02T02:43:55.095Z,2.50
2023-03-02T02:46:23.162Z,2.50
2023-03-02T02:48:50.114Z,2.50
2023-03-02T02:51:26.242Z,2.50
2023-03-02T02:54:01.450Z,2.40
2023-03-02T02:56:36.076Z,2.40
2023-03-02T02:59:24.295Z,2.40
2023-03-02T03:01:52.178Z,2.40
2023-03-02T03:04:22.079Z,2.30
2023-03-02T03:06:58.815Z,2.30
2023-03-02T03:09:26.847Z,2.30
2023-03-02T03:12:08.481Z,2.30
2023-03-02T03:14:41.210Z,2.30
2023-03-02T03:17:12.195Z,2.30
2023-03-02T03:19:41.791Z,2.30
2023-03-02T03:22:11.984Z,2.30
2023-03-02T03:24:42.896Z,2.30
2023-03-02T03:27:11.271Z,2.60
2023-03-02T03:29:41.491Z,2.20
2023-03-02T03:32:09.009Z,2.30
2023-03-02T03:34:40.896Z,2.20
2023-03-02T03:37:10.917Z,2.20
2023-03-02T03:39:38.354Z,2.20
2023-03-02T03:42:06.104Z,2.30
2023-03-02T03:44:33.347Z,2.20
2023-03-02T03:47:00.553Z,1.70
2023-03-02T03:49:28.198Z,2.10
2023-03-02T03:51:55.390Z,2.10
2023-03-02T03:54:22.440Z,2.10
2023-03-02T03:56:50.707Z,2.10
2023-03-02T03:59:21.276Z,2.30
2023-03-02T04:01:53.862Z,2.10
2023-03-02T04:04:33.189Z,2.10
2023-03-02T04:07:00.393Z,2.10
2023-03-02T04:09:27.390Z,2.00
2023-03-02T04:11:56.235Z,2.00
2023-03-02T04:14:24.328Z,2.00
2023-03-02T04:16:51.421Z,2.00
2023-03-02T04:19:18.441Z,2.00
2023-03-02T04:21:48.325Z,2.00
2023-03-02T04:24:16.326Z,2.00
2023-03-02T04:26:44.414Z,2.00
2023-03-02T04:29:12.818Z,2.00
2023-03-02T04:31:40.153Z,2.00
2023-03-02T04:34:08.487Z,2.00
2023-03-02T04:36:38.647Z,2.00
2023-03-02T04:39:06.526Z,1.90
2023-03-02T04:41:33.780Z,2.00
2023-03-02T04:44:00.859Z,2.00
2023-03-02T04:46:28.232Z,1.90
2023-03-02T04:48:55.598Z,1.90
2023-03-02T04:51:30.197Z,1.90
2023-03-02T04:54:01.084Z,1.90
2023-03-02T04:56:28.504Z,1.90
2023-03-02T04:58:55.775Z,1.90
2023-03-02T05:01:23.161Z,1.90
2023-03-02T05:03:50.337Z,1.90
2023-03-02T05:06:17.886Z,1.90
2023-03-02T05:08:45.315Z,2.00
2023-03-02T05:11:22.211Z,1.90
2023-03-02T05:13:50.935Z,1.80
2023-03-02T05:16:18.680Z,2.00
2023-03-02T05:18:46.340Z,1.80
2023-03-02T05:21:14.435Z,1.80
2023-03-02T05:23:42.401Z,1.80
2023-03-02T05:26:09.763Z,1.80
2023-03-02T05:28:36.720Z,1.80
2023-03-02T05:31:04.313Z,1.80
2023-03-02T05:33:31.168Z,1.80
2023-03-02T05:35:58.149Z,1.80
2023-03-02T05:38:27.365Z,1.80
2023-03-02T05:40:54.552Z,1.80
2023-03-02T05:43:23.506Z,1.80
2023-03-02T05:45:50.689Z,1.80
2023-03-02T05:48:17.698Z,1.80
2023-03-02T05:50:44.776Z,1.80
2023-03-02T05:53:12.256Z,2.00
2023-03-02T05:55:39.086Z,1.80
2023-03-02T05:58:12.981Z,1.70
2023-03-02T06:00:40.573Z,1.70
2023-03-02T06:03:07.621Z,2.10
2023-03-02T06:05:34.646Z,1.70
2023-03-02T06:08:01.499Z,1.70
2023-03-02T06:10:28.552Z,1.70
2023-03-02T06:12:55.778Z,1.70
2023-03-02T06:15:22.662Z,1.70
2023-03-02T06:17:49.690Z,1.70
2023-03-02T06:20:16.654Z,1.70
2023-03-02T06:22:45.392Z,1.70
2023-03-02T06:25:14.974Z,1.70
2023-03-02T06:27:42.624Z,1.70
2023-03-02T06:30:13.648Z,1.70
2023-03-02T06:32:41.855Z,1.70
2023-03-02T06:35:09.604Z,1.70
2023-03-02T06:37:36.555Z,1.70
2023-03-02T06:40:08.556Z,1.70
2023-03-02T06:42:35.686Z,1.70
2023-03-02T06:45:02.571Z,1.70
2023-03-02T06:47:29.398Z,1.70
2023-03-02T06:49:56.632Z,1.90
2023-03-02T06:52:23.473Z,1.70
2023-03-02T06:54:50.301Z,1.70
2023-03-02T06:57:17.151Z,1.70
2023-03-02T06:59:43.999Z,1.70
2023-03-02T07:02:11.440Z,1.70
2023-03-02T07:04:38.411Z,1.70
2023-03-02T07:07:05.523Z,1.70
2023-03-02T07:09:35.802Z,1.70
2023-03-02T07:12:02.668Z,1.70
2023-03-02T07:14:29.633Z,1.80
2023-03-02T07:17:00.245Z,1.90
2023-03-02T07:19:27.286Z,1.70
2023-03-02T07:21:54.161Z,2.00
2023-03-02T07:24:22.400Z,1.70
2023-03-02T07:26:49.357Z,1.80
2023-03-02T07:29:16.232Z,1.80
2023-03-02T07:31:44.354Z,1.80
2023-03-02T07:34:11.293Z,1.80
2023-03-02T07:36:38.093Z,1.90
2023-03-02T07:39:05.576Z,1.80
2023-03-02T07:41:32.780Z,1.80
2023-03-02T07:43:59.828Z,1.80
2023-03-02T07:46:26.822Z,1.80
2023-03-02T07:48:54.080Z,1.80
2023-03-02T07:51:23.894Z,1.80
2023-03-02T07:53:50.946Z,1.90
2023-03-02T07:56:18.720Z,1.90
2023-03-02T07:58:48.733Z,1.90
2023-03-02T08:01:15.723Z,1.90
2023-03-02T08:03:42.600Z,2.00
2023-03-02T08:06:11.921Z,2.00
2023-03-02T08:08:39.253Z,2.00
2023-03-02T08:11:13.376Z,2.00
2023-03-02T08:13:41.049Z,2.00
2023-03-02T08:16:09.562Z,2.10
2023-03-02T08:18:37.470Z,2.10
2023-03-02T08:21:05.533Z,2.10
2023-03-02T08:23:32.452Z,2.10
2023-03-02T08:25:59.353Z,2.40
2023-03-02T08:28:26.229Z,2.10
2023-03-02T08:30:57.362Z,2.10
2023-03-02T08:33:25.284Z,2.50
2023-03-02T08:36:04.532Z,2.10
2023-03-02T08:38:32.683Z,2.10
2023-03-02T08:41:04.059Z,2.10
2023-03-02T08:43:30.948Z,2.30
2023-03-02T08:45:58.007Z,2.20
2023-03-02T08:48:26.838Z,2.20
2023-03-02T08:51:18.590Z,2.20
2023-03-02T08:53:48.003Z,2.20
2023-03-02T08:56:16.395Z,2.30
2023-03-02T08:58:43.229Z,2.50
2023-03-02T09:01:15.188Z,2.40
2023-03-02T09:03:42.319Z,2.50
2023-03-02T09:06:09.177Z,2.80
2023-03-02T09:08:36.063Z,2.50
2023-03-02T09:11:03.022Z,2.70
2023-03-02T09:13:29.856Z,2.60
2023-03-02T09:15:57.051Z,2.60
2023-03-02T09:18:28.875Z,2.60
2023-03-02T09:20:58.661Z,2.90
2023-03-02T09:23:26.987Z,2.60
2023-03-02T09:25:54.509Z,2.60
2023-03-02T09:28:22.052Z,2.60
2023-03-02T09:30:53.664Z,2.60
2023-03-02T09:33:21.521Z,2.60
2023-03-02T09:35:48.686Z,2.60
2023-03-02T09:38:17.117Z,2.60
2023-03-02T09:40:52.302Z,2.60
2023-03-02T09:43:28.770Z,2.60
2023-03-02T09:46:17.413Z,2.70
2023-03-02T09:49:26.021Z,2.70
2023-03-02T09:52:26.411Z,2.80
2023-03-02T09:54:53.516Z,3.20
2023-03-02T09:57:28.769Z,2.90
2023-03-02T10:00:19.144Z,3.00
2023-03-02T10:02:48.405Z,3.00
2023-03-02T10:05:29.025Z,3.00
2023-03-02T10:07:57.844Z,3.00
2023-03-02T10:10:46.338Z,3.10
2023-03-02T10:13:35.306Z,3.20
2023-03-02T10:16:27.965Z,3.30
2023-03-02T10:19:16.276Z,3.30
2023-03-02T10:21:49.160Z,3.30
2023-03-02T10:24:35.710Z,3.40
2023-03-02T10:27:26.622Z,3.40
2023-03-02T10:30:06.502Z,3.40
2023-03-02T10:32:38.480Z,3.40
2023-03-02T10:35:19.276Z,3.40
2023-03-02T10:37:46.613Z,3.40
2023-03-02T10:40:41.372Z,3.50
2023-03-02T10:43:26.700Z,3.50
2023-03-02T10:46:10.290Z,3.50
2023-03-02T10:48:49.300Z,3.70
2023-03-02T10:51:35.518Z,3.70
2023-03-02T10:54:20.512Z,3.60
2023-03-02T10:56:53.617Z,3.60
2023-03-02T10:59:27.031Z,3.60
2023-03-02T11:02:15.195Z,3.60
2023-03-02T11:04:42.385Z,3.60
2023-03-02T11:07:17.939Z,3.80
2023-03-02T11:09:56.300Z,3.60
2023-03-02T11:12:24.257Z,3.70
2023-03-02T11:15:04.632Z,3.80
2023-03-02T11:17:37.658Z,3.80
2023-03-02T11:20:05.343Z,4.00
2023-03-02T11:23:07.786Z,3.90
2023-03-02T11:25:39.307Z,4.00
2023-03-02T11:28:32.874Z,4.00
2023-03-02T11:31:02.528Z,4.00
2023-03-02T11:34:07.918Z,4.10
2023-03-02T11:36:56.605Z,4.10
2023-03-02T11:39:55.447Z,4.10
2023-03-02T11:42:31.653Z,4.20
2023-03-02T11:45:13.590Z,4.30
2023-03-02T11:47:57.562Z,4.30
2023-03-02T11:50:31.038Z,4.40
2023-03-02T11:53:01.487Z,4.40
2023-03-02T11:55:32.094Z,4.40
2023-03-02T11:58:04.120Z,4.40
2023-03-02T12:00:32.759Z,4.60
2023-03-02T12:03:17.374Z,4.50
2023-03-02T12:06:06.692Z,4.50
2023-03-02T12:08:44.039Z,4.60
2023-03-02T12:11:16.668Z,4.60
2023-03-02T12:13:46.345Z,4.70
2023-03-02T12:16:23.763Z,4.60
2023-03-02T12:18:51.869Z,4.60
2023-03-02T12:21:19.967Z,4.70
2023-03-02T12:23:49.973Z,4.60
2023-03-02T12:26:19.863Z,4.80
2023-03-02T12:29:10.876Z,4.70
2023-03-02T12:31:45.390Z,4.70
2023-03-02T12:34:24.502Z,4.80
2023-03-02T12:36:56.136Z,4.90
2023-03-02T12:40:03.833Z,5.00
2023-03-02T12:42:55.371Z,5.10
2023-03-02T12:45:38.593Z,5.20
2023-03-02T12:48:30.526Z,5.30
2023-03-02T12:51:03.267Z,5.30
2023-03-02T12:53:30.548Z,5.30
2023-03-02T12:55:57.693Z,5.30
2023-03-02T12:58:29.255Z,5.30
2023-03-02T13:00:59.785Z,5.30
2023-03-02T13:03:28.234Z,5.30
2023-03-02T13:06:13.822Z,5.30
2023-03-02T13:08:44.390Z,5.20
2023-03-02T13:11:12.172Z,5.10
2023-03-02T13:13:42.422Z,5.10
2023-03-02T13:16:26.277Z,5.20
2023-03-02T13:19:01.823Z,5.00
2023-03-02T13:21:34.027Z,5.00
2023-03-02T13:24:01.812Z,5.00
2023-03-02T13:26:35.032Z,5.00
2023-03-02T13:29:26.502Z,4.90
2023-03-02T13:31:55.762Z,4.80
2023-03-02T13:34:25.982Z,4.80
2023-03-02T13:36:53.561Z,4.80
2023-03-02T13:39:25.398Z,4.70
2023-03-02T13:42:00.533Z,4.70
2023-03-02T13:44:33.224Z,4.70
2023-03-02T13:47:01.197Z,4.80
2023-03-02T13:49:33.545Z,5.10
2023-03-02T13:52:08.202Z,4.80
2023-03-02T13:54:37.096Z,4.90
2023-03-02T13:57:05.778Z,4.90
2023-03-02T13:59:36.682Z,4.90
2023-03-02T14:02:07.516Z,4.90
2023-03-02T14:04:34.441Z,4.90
2023-03-02T14:07:01.306Z,5.00
2023-03-02T14:09:28.304Z,5.00
2023-03-02T14:11:57.052Z,5.00
2023-03-02T14:14:26.441Z,5.20
2023-03-02T14:16:53.335Z,4.90
2023-03-02T14:19:20.348Z,4.90
2023-03-02T14:21:48.041Z,4.80
2023-03-02T14:24:15.379Z,4.90
2023-03-02T14:26:44.972Z,5.10
2023-03-02T14:29:28.147Z,5.00
2023-03-02T14:31:56.478Z,4.90
2023-03-02T14:34:23.819Z,5.00
2023-03-02T14:36:55.580Z,5.10
2023-03-02T14:39:38.217Z,5.30
2023-03-02T14:42:06.898Z,5.50
2023-03-02T14:44:33.720Z,5.50
2023-03-02T14:47:01.090Z,5.90
2023-03-02T14:49:28.691Z,6.60
2023-03-02T14:52:11.840Z,7.10
2023-03-02T14:54:43.826Z,7.60
2023-03-02T14:57:21.062Z,8.00
2023-03-02T14:59:48.902Z,8.20
2023-03-02T15:02:25.192Z,8.30
2023-03-02T15:04:56.108Z,8.80
2023-03-02T15:07:24.389Z,9.30
2023-03-02T15:09:51.233Z,9.90
2023-03-02T15:12:18.149Z,10.20
2023-03-02T15:14:45.056Z,10.20
2023-03-02T15:17:11.875Z,10.00
2023-03-02T15:19:38.744Z,9.90
2023-03-02T15:22:05.565Z,10.10
2023-03-02T15:24:33.554Z,10.10
2023-03-02T15:27:00.931Z,9.70
2023-03-02T15:29:27.789Z,9.20
2023-03-02T15:31:54.761Z,8.70
2023-03-02T15:34:21.660Z,8.20
2023-03-02T15:36:48.674Z,8.00
2023-03-02T15:39:16.743Z,7.80
2023-03-02T15:41:43.725Z,7.80
2023-03-02T15:44:23.043Z,7.60
2023-03-02T15:46:51.711Z,7.30
2023-03-02T15:49:22.808Z,7.00
2023-03-02T15:51:51.990Z,6.80
2023-03-02T15:54:19.670Z,6.70
2023-03-02T15:56:51.872Z,6.60
2023-03-02T15:59:23.925Z,6.60
2023-03-02T16:01:51.382Z,6.50
2023-03-02T16:04:18.543Z,6.50
2023-03-02T16:06:45.597Z,6.50
2023-03-02T16:09:12.500Z,6.50
2023-03-02T16:11:39.344Z,6.40
2023-03-02T16:14:06.477Z,6.30
2023-03-02T16:16:33.755Z,6.30
2023-03-02T16:19:01.297Z,6.20
2023-03-02T16:21:28.915Z,6.20
2023-03-02T16:24:03.576Z,6.10
2023-03-02T16:26:32.147Z,6.00
2023-03-02T16:28:59.625Z,6.10
2023-03-02T16:31:28.041Z,5.90
2023-03-02T16:33:57.722Z,5.80
2023-03-02T16:36:24.949Z,5.70
2023-03-02T16:38:52.949Z,5.60
2023-03-02T16:41:22.757Z,5.50
2023-03-02T16:43:52.497Z,5.50
2023-03-02T16:46:21.193Z,5.70
2023-03-02T16:48:52.680Z,5.40
2023-03-02T16:51:20.351Z,5.20
2023-03-02T16:53:48.034Z,5.20
2023-03-02T16:56:15.552Z,5.10
2023-03-02T16:58:43.490Z,5.10
2023-03-02T17:01:16.832Z,5.00
2023-03-02T17:03:44.201Z,5.00
2023-03-02T17:06:12.672Z,5.20
2023-03-02T17:08:41.990Z,4.90
2023-03-02T17:11:10.087Z,4.80
2023-03-02T17:13:40.070Z,4.70
2023-03-02T17:16:09.900Z,4.80
2023-03-02T17:18:37.327Z,4.70
2023-03-02T17:21:05.870Z,4.60
2023-03-02T17:23:33.266Z,4.60
2023-03-02T17:26:00.321Z,4.50
2023-03-02T17:28:27.548Z,5.00
2023-03-02T17:31:04.574Z,4.40
2023-03-02T17:33:36.105Z,4.20
2023-03-02T17:36:12.047Z,4.30
2023-03-02T17:38:40.346Z,4.30
2023-03-02T17:41:09.200Z,4.50
2023-03-02T17:43:39.105Z,4.10
2023-03-02T17:46:22.835Z,4.10
2023-03-02T17:48:54.144Z,4.00
2023-03-02T17:51:22.586Z,4.30
2023-03-02T17:53:53.944Z,4.50
2023-03-02T17:56:23.511Z,4.40
2023-03-02T17:58:55.963Z,4.10
2023-03-02T18:01:25.262Z,3.80
2023-03-02T18:03:52.256Z,3.80
2023-03-02T18:06:21.600Z,3.70
2023-03-02T18:08:50.066Z,3.70
2023-03-02T18:11:19.274Z,3.60
2023-03-02T18:13:47.268Z,3.60
2023-03-02T18:16:15.283Z,3.60
2023-03-02T18:18:42.266Z,3.60
2023-03-02T18:21:09.506Z,4.20
2023-03-02T18:23:36.604Z,3.50
2023-03-02T18:26:03.697Z,3.60
2023-03-02T18:28:33.552Z,3.40
2023-03-02T18:31:00.492Z,3.80
2023-03-02T18:33:27.509Z,3.30
2023-03-02T18:35:54.643Z,3.30
2023-03-02T18:38:21.671Z,3.20
2023-03-02T18:40:48.578Z,3.40
2023-03-02T18:43:15.764Z,3.20
2023-03-02T18:45:42.626Z,3.50
2023-03-02T18:48:09.611Z,3.10
2023-03-02T18:50:37.139Z,3.10
2023-03-02T18:53:04.423Z,3.10
2023-03-02T18:55:33.796Z,3.10
2023-03-02T18:58:00.741Z,3.00
2023-03-02T19:00:28.314Z,3.00
2023-03-02T19:02:56.863Z,3.00
2023-03-02T19:05:25.220Z,2.90
2023-03-02T19:07:52.895Z,2.90
2023-03-02T19:10:23.086Z,3.00
2023-03-02T19:12:50.293Z,2.70
2023-03-02T19:15:17.201Z,2.80
2023-03-02T19:17:44.295Z,2.90
2023-03-02T19:20:14.759Z,2.80
2023-03-02T19:22:42.770Z,2.80
2023-03-02T19:25:10.641Z,2.70
2023-03-02T19:27:37.819Z,2.70
2023-03-02T19:30:07.007Z,2.60
2023-03-02T19:32:34.138Z,2.60
2023-03-02T19:35:02.863Z,2.60
2023-03-02T19:37:32.054Z,2.60
2023-03-02T19:39:58.954Z,2.80
2023-03-02T19:42:30.587Z,2.50
2023-03-02T19:44:57.753Z,2.50
2023-03-02T19:47:24.830Z,2.40
2023-03-02T19:49:51.817Z,2.40
2023-03-02T19:52:18.871Z,2.40
2023-03-02T19:54:45.797Z,2.40
2023-03-02T19:57:12.832Z,2.60
2023-03-02T19:59:41.421Z,2.40
2023-03-02T20:02:08.995Z,2.40
2023-03-02T20:04:35.975Z,2.40
2023-03-02T20:07:04.625Z,2.50
2023-03-02T20:09:31.939Z,2.40
2023-03-02T20:12:00.162Z,2.50
2023-03-02T20:14:33.753Z,2.50
2023-03-02T20:17:04.428Z,2.60
2023-03-02T20:19:32.013Z,2.50
2023-03-02T20:21:59.093Z,2.50
2023-03-02T20:24:25.996Z,2.60
2023-03-02T20:26:53.094Z,2.60
2023-03-02T20:29:20.550Z,2.60
2023-03-02T20:31:47.592Z,2.80
2023-03-02T20:34:17.839Z,2.70
2023-03-02T20:36:45.411Z,2.50
2023-03-02T20:39:21.576Z,2.70
2023-03-02T20:41:49.297Z,2.70
2023-03-02T20:44:16.864Z,2.60
2023-03-02T20:46:47.924Z,2.60
2023-03-02T20:49:15.862Z,2.60
2023-03-02T20:51:49.346Z,2.60
2023-03-02T20:54:17.067Z,2.60
2023-03-02T20:56:44.897Z,2.60
2023-03-02T20:59:14.528Z,2.60
2023-03-02T21:01:42.422Z,2.60
2023-03-02T21:04:09.437Z,2.60
2023-03-02T21:06:36.406Z,2.60
2023-03-02T21:09:04.937Z,3.00
2023-03-02T21:11:31.899Z,2.50
2023-03-02T21:13:59.718Z,2.50
2023-03-02T21:16:36.072Z,2.80
2023-03-02T21:19:11.354Z,2.50
2023-03-02T21:21:42.212Z,2.40
2023-03-02T21:24:11.489Z,2.60
2023-03-02T21:26:38.983Z,2.40
2023-03-02T21:29:05.890Z,2.40
2023-03-02T21:31:33.230Z,2.40
2023-03-02T21:34:00.787Z,2.40
2023-03-02T21:36:28.304Z,2.30
2023-03-02T21:38:55.764Z,2.30
2023-03-02T21:41:23.287Z,2.30
2023-03-02T21:43:50.982Z,2.30
2023-03-02T21:46:21.144Z,2.40
2023-03-02T21:48:49.684Z,2.20
2023-03-02T21:51:16.763Z,2.20
2023-03-02T21:53:43.812Z,2.20
2023-03-02T21:56:23.148Z,2.20
2023-03-02T21:58:51.355Z,2.20
2023-03-02T22:01:18.719Z,2.10
2023-03-02T22:03:45.822Z,2.10
2023-03-02T22:06:25.149Z,2.10
2023-03-02T22:08:52.255Z,2.10
2023-03-02T22:11:30.217Z,2.10
2023-03-02T22:13:59.464Z,2.30
2023-03-02T22:16:35.719Z,2.20
2023-03-02T22:19:26.254Z,2.20
2023-03-02T22:21:55.556Z,2.20
2023-03-02T22:24:28.745Z,2.20
2023-03-02T22:27:02.420Z,2.20
2023-03-02T22:29:43.443Z,2.30
2023-03-02T22:32:24.342Z,2.40
2023-03-02T22:34:53.695Z,2.20
2023-03-02T22:37:26.527Z,2.20
2023-03-02T22:40:27.866Z,2.20
2023-03-02T22:43:07.241Z,2.30
2023-03-02T22:45:35.530Z,2.30
2023-03-02T22:48:02.397Z,2.30
2023-03-02T22:50:31.278Z,2.30
2023-03-02T22:53:03.486Z,2.30
2023-03-02T22:55:39.956Z,2.40
2023-03-02T22:58:25.682Z,2.30
2023-03-02T23:00:53.070Z,2.50
2023-03-02T23:03:35.451Z,2.60
2023-03-02T23:06:12.065Z,2.30
2023-03-02T23:08:39.797Z,2.30
2023-03-02T23:11:16.769Z,2.30
2023-03-02T23:13:44.635Z,2.30
2023-03-02T23:16:25.586Z,2.30
2023-03-02T23:18:55.825Z,2.30
2023-03-02T23:21:28.245Z,2.30
2023-03-02T23:23:55.664Z,2.30
2023-03-02T23:26:22.764Z,2.30
2023-03-02T23:28:50.892Z,2.20
2023-03-02T23:31:23.524Z,2.20
2023-03-02T23:33:50.601Z,2.30
2023-03-02T23:36:17.615Z,2.30
2023-03-02T23:38:44.509Z,2.30
2023-03-02T23:41:11.338Z,2.30
2023-03-02T23:43:38.180Z,2.30
2023-03-02T23:46:05.560Z,2.30
2023-03-02T23:48:34.178Z,2.40
2023-03-02T23:51:01.691Z,2.80
2023-03-02T23:53:28.616Z,2.80
2023-03-02T23:55:55.773Z,2.30
2023-03-02T23:58:23.040Z,2.30
